createdAt,value
2018-06-30T00:00:41.000Z,38
2018-06-30T00:01:41.000Z,38
2018-06-30T00:03:41.000Z,38
2018-06-30T00:04:41.000Z,38
2018-06-30T00:05:41.000Z,38
2018-06-30T00:06:41.000Z,38
2018-06-30T00:07:41.000Z,38
2018-06-30T00:08:41.000Z,38
2018-06-30T00:09:41.000Z,38
2018-06-30T00:10:41.000Z,38
2018-06-30T00:11:41.000Z,38
2018-06-30T00:12:41.000Z,38
2018-06-30T00:13:41.000Z,38
2018-06-30T00:14:41.000Z,38
2018-06-30T00:15:41.000Z,38
2018-06-30T00:16:41.000Z,38
2018-06-30T00:17:41.000Z,38
2018-06-30T00:18:41.000Z,38
2018-06-30T00:19:41.000Z,38
2018-06-30T00:20:41.000Z,38
2018-06-30T00:21:41.000Z,38
2018-06-30T00:22:41.000Z,38
2018-06-30T00:23:41.000Z,38
2018-06-30T00:24:41.000Z,39
2018-06-30T00:25:41.000Z,38
2018-06-30T00:26:41.000Z,39
2018-06-30T00:27:41.000Z,39
2018-06-30T00:28:41.000Z,38
2018-06-30T00:29:41.000Z,38
2018-06-30T00:30:41.000Z,38
2018-06-30T00:31:41.000Z,39
2018-06-30T00:32:41.000Z,39
2018-06-30T00:34:41.000Z,38
2018-06-30T00:35:41.000Z,39
2018-06-30T00:36:41.000Z,39
2018-06-30T00:37:41.000Z,39
2018-06-30T00:38:41.000Z,39
2018-06-30T00:39:41.000Z,39
2018-06-30T00:40:41.000Z,39
2018-06-30T00:41:41.000Z,39
2018-06-30T00:42:41.000Z,39
2018-06-30T00:43:41.000Z,39
2018-06-30T00:44:41.000Z,39
2018-06-30T00:46:41.000Z,39
2018-06-30T00:47:41.000Z,39
2018-06-30T00:48:41.000Z,39
2018-06-30T00:49:41.000Z,39
2018-06-30T00:50:41.000Z,39
2018-06-30T00:51:41.000Z,39
2018-06-30T00:52:41.000Z,39
2018-06-30T00:53:41.000Z,40
2018-06-30T00:54:41.000Z,39
2018-06-30T00:55:41.000Z,40
2018-06-30T00:56:41.000Z,40
2018-06-30T00:57:41.000Z,40
2018-06-30T00:58:41.000Z,40
2018-06-30T00:59:41.000Z,40
2018-06-30T01:00:41.000Z,40
2018-06-30T01:01:41.000Z,40
2018-06-30T01:02:41.000Z,40
2018-06-30T01:03:41.000Z,40
2018-06-30T01:04:41.000Z,40
2018-06-30T01:05:41.000Z,40
2018-06-30T01:06:41.000Z,40
2018-06-30T01:07:41.000Z,40
2018-06-30T01:09:41.000Z,40
2018-06-30T01:10:41.000Z,40
2018-06-30T01:11:41.000Z,40
2018-06-30T01:12:41.000Z,40
2018-06-30T01:13:41.000Z,40
2018-06-30T01:15:41.000Z,40
2018-06-30T01:16:41.000Z,40
2018-06-30T01:17:41.000Z,40
2018-06-30T01:18:41.000Z,40
2018-06-30T01:19:41.000Z,40
2018-06-30T01:20:41.000Z,40
2018-06-30T01:21:41.000Z,40
2018-06-30T01:22:41.000Z,41
2018-06-30T01:23:41.000Z,41
2018-06-30T01:24:41.000Z,40
2018-06-30T01:25:41.000Z,40
2018-06-30T01:26:41.000Z,40
2018-06-30T01:27:41.000Z,40
2018-06-30T01:28:41.000Z,40
2018-06-30T01:29:41.000Z,41
2018-06-30T01:30:41.000Z,40
2018-06-30T01:31:41.000Z,40
2018-06-30T01:32:41.000Z,41
2018-06-30T01:33:41.000Z,40
2018-06-30T01:35:41.000Z,40
2018-06-30T01:36:41.000Z,41
2018-06-30T01:37:41.000Z,41
2018-06-30T01:38:41.000Z,41
2018-06-30T01:39:41.000Z,41
2018-06-30T01:40:41.000Z,41
2018-06-30T01:41:41.000Z,41
2018-06-30T01:42:41.000Z,41
2018-06-30T01:43:41.000Z,41
2018-06-30T01:44:41.000Z,41
2018-06-30T01:46:41.000Z,41
2018-06-30T01:47:41.000Z,41
2018-06-30T01:48:41.000Z,41
2018-06-30T01:49:41.000Z,41
2018-06-30T01:50:41.000Z,41
2018-06-30T01:51:41.000Z,41
2018-06-30T01:52:41.000Z,41
2018-06-30T01:53:41.000Z,41
2018-06-30T01:54:41.000Z,41
2018-06-30T01:55:41.000Z,41
2018-06-30T01:56:41.000Z,41
2018-06-30T01:57:42.000Z,41
2018-06-30T01:58:42.000Z,41
2018-06-30T01:59:42.000Z,41
2018-06-30T02:00:42.000Z,41
2018-06-30T02:01:42.000Z,41
2018-06-30T02:02:42.000Z,41
2018-06-30T02:03:42.000Z,41
2018-06-30T02:04:42.000Z,41
2018-06-30T02:06:42.000Z,41
2018-06-30T02:07:42.000Z,41
2018-06-30T02:08:42.000Z,41
2018-06-30T02:09:42.000Z,41
2018-06-30T02:10:42.000Z,41
2018-06-30T02:11:42.000Z,41
2018-06-30T02:12:42.000Z,41
2018-06-30T02:13:42.000Z,42
2018-06-30T02:14:42.000Z,42
2018-06-30T02:15:42.000Z,42
2018-06-30T02:16:42.000Z,42
2018-06-30T02:17:42.000Z,42
2018-06-30T02:18:42.000Z,42
2018-06-30T02:19:42.000Z,42
2018-06-30T02:20:42.000Z,42
2018-06-30T02:21:42.000Z,42
2018-06-30T02:22:42.000Z,42
2018-06-30T02:24:42.000Z,42
2018-06-30T02:25:42.000Z,42
2018-06-30T02:27:42.000Z,42
2018-06-30T02:29:42.000Z,42
2018-06-30T02:30:42.000Z,42
2018-06-30T02:32:42.000Z,42
2018-06-30T02:33:42.000Z,42
2018-06-30T02:34:42.000Z,42
2018-06-30T02:35:42.000Z,42
2018-06-30T02:36:42.000Z,42
2018-06-30T02:37:42.000Z,42
2018-06-30T02:38:42.000Z,42
2018-06-30T02:39:42.000Z,42
2018-06-30T02:40:42.000Z,42
2018-06-30T02:41:42.000Z,42
2018-06-30T02:42:42.000Z,42
2018-06-30T02:43:42.000Z,42
2018-06-30T02:44:42.000Z,42
2018-06-30T02:45:42.000Z,42
2018-06-30T02:46:42.000Z,42
2018-06-30T02:47:42.000Z,42
2018-06-30T02:48:42.000Z,42
2018-06-30T02:50:42.000Z,42
2018-06-30T02:51:42.000Z,43
2018-06-30T02:53:42.000Z,43
2018-06-30T02:54:42.000Z,43
2018-06-30T02:55:42.000Z,43
2018-06-30T02:56:42.000Z,43
2018-06-30T02:57:42.000Z,43
2018-06-30T02:58:42.000Z,43
2018-06-30T02:59:42.000Z,43
2018-06-30T03:00:41.000Z,43
2018-06-30T03:01:41.000Z,43
2018-06-30T03:02:41.000Z,43
2018-06-30T03:03:41.000Z,43
2018-06-30T03:04:41.000Z,43
2018-06-30T03:06:41.000Z,43
2018-06-30T03:07:41.000Z,43
2018-06-30T03:08:41.000Z,43
2018-06-30T03:09:41.000Z,43
2018-06-30T03:10:41.000Z,43
2018-06-30T03:11:41.000Z,43
2018-06-30T03:12:41.000Z,43
2018-06-30T03:13:41.000Z,43
2018-06-30T03:14:41.000Z,43
2018-06-30T03:15:41.000Z,43
2018-06-30T03:16:41.000Z,43
2018-06-30T03:17:41.000Z,43
2018-06-30T03:18:41.000Z,43
2018-06-30T03:19:41.000Z,43
2018-06-30T03:20:41.000Z,43
2018-06-30T03:21:41.000Z,43
2018-06-30T03:23:41.000Z,43
2018-06-30T03:24:41.000Z,43
2018-06-30T03:25:41.000Z,43
2018-06-30T03:27:41.000Z,43
2018-06-30T03:28:41.000Z,43
2018-06-30T03:29:41.000Z,43
2018-06-30T03:30:41.000Z,43
2018-06-30T03:31:41.000Z,43
2018-06-30T03:32:41.000Z,43
2018-06-30T03:33:41.000Z,43
2018-06-30T03:34:41.000Z,43
2018-06-30T03:35:41.000Z,43
2018-06-30T03:36:41.000Z,43
2018-06-30T03:37:41.000Z,43
2018-06-30T03:38:41.000Z,43
2018-06-30T03:39:41.000Z,43
2018-06-30T03:40:41.000Z,43
2018-06-30T03:41:41.000Z,43
2018-06-30T03:42:41.000Z,43
2018-06-30T03:43:41.000Z,43
2018-06-30T03:44:41.000Z,43
2018-06-30T03:45:41.000Z,43
2018-06-30T03:46:41.000Z,43
2018-06-30T03:47:41.000Z,43
2018-06-30T03:48:41.000Z,43
2018-06-30T03:49:41.000Z,43
2018-06-30T03:50:41.000Z,43
2018-06-30T03:51:41.000Z,43
2018-06-30T03:53:41.000Z,43
2018-06-30T03:54:41.000Z,43
2018-06-30T03:56:41.000Z,43
2018-06-30T03:57:41.000Z,43
2018-06-30T03:58:41.000Z,44
2018-06-30T03:59:41.000Z,43
2018-06-30T04:00:41.000Z,43
2018-06-30T04:01:41.000Z,43
2018-06-30T04:02:41.000Z,43
2018-06-30T04:03:41.000Z,43
2018-06-30T04:04:41.000Z,43
2018-06-30T04:05:41.000Z,43
2018-06-30T04:06:41.000Z,43
2018-06-30T04:07:41.000Z,43
2018-06-30T04:08:41.000Z,43
2018-06-30T04:10:41.000Z,43
2018-06-30T04:11:41.000Z,44
2018-06-30T04:12:41.000Z,44
2018-06-30T04:13:41.000Z,44
2018-06-30T04:15:41.000Z,43
2018-06-30T04:16:41.000Z,44
2018-06-30T04:17:41.000Z,44
2018-06-30T04:18:41.000Z,44
2018-06-30T04:19:41.000Z,44
2018-06-30T04:20:41.000Z,44
2018-06-30T04:21:41.000Z,44
2018-06-30T04:23:41.000Z,44
2018-06-30T04:24:41.000Z,44
2018-06-30T04:25:41.000Z,43
2018-06-30T04:26:41.000Z,44
2018-06-30T04:27:41.000Z,44
2018-06-30T04:28:41.000Z,44
2018-06-30T04:29:41.000Z,44
2018-06-30T04:30:41.000Z,44
2018-06-30T04:31:41.000Z,44
2018-06-30T04:32:41.000Z,44
2018-06-30T04:33:41.000Z,43
2018-06-30T04:34:41.000Z,43
2018-06-30T04:35:41.000Z,43
2018-06-30T04:36:41.000Z,43
2018-06-30T04:38:41.000Z,43
2018-06-30T04:39:41.000Z,43
2018-06-30T04:40:41.000Z,43
2018-06-30T04:41:41.000Z,43
2018-06-30T04:42:41.000Z,43
2018-06-30T04:43:41.000Z,43
2018-06-30T04:45:41.000Z,43
2018-06-30T04:47:41.000Z,43
2018-06-30T04:48:41.000Z,43
2018-06-30T04:49:41.000Z,43
2018-06-30T04:50:41.000Z,44
2018-06-30T04:51:41.000Z,44
2018-06-30T04:52:41.000Z,43
2018-06-30T04:53:41.000Z,43
2018-06-30T04:55:41.000Z,43
2018-06-30T04:56:41.000Z,43
2018-06-30T04:58:41.000Z,43
2018-06-30T04:59:41.000Z,43
2018-06-30T05:00:41.000Z,43
2018-06-30T05:01:41.000Z,44
2018-06-30T05:02:41.000Z,43
2018-06-30T05:03:41.000Z,44
2018-06-30T05:04:41.000Z,44
2018-06-30T05:05:41.000Z,43
2018-06-30T05:06:41.000Z,44
2018-06-30T05:07:41.000Z,43
2018-06-30T05:08:41.000Z,44
2018-06-30T05:09:41.000Z,43
2018-06-30T05:11:41.000Z,43
2018-06-30T05:12:41.000Z,43
2018-06-30T05:14:41.000Z,43
2018-06-30T05:15:41.000Z,43
2018-06-30T05:16:41.000Z,43
2018-06-30T05:17:41.000Z,43
2018-06-30T05:18:41.000Z,44
2018-06-30T05:19:41.000Z,43
2018-06-30T05:20:41.000Z,43
2018-06-30T05:21:41.000Z,43
2018-06-30T05:23:41.000Z,43
2018-06-30T05:24:41.000Z,43
2018-06-30T05:25:41.000Z,43
2018-06-30T05:26:41.000Z,43
2018-06-30T05:27:41.000Z,43
2018-06-30T05:28:41.000Z,43
2018-06-30T05:29:41.000Z,43
2018-06-30T05:30:41.000Z,43
2018-06-30T05:32:41.000Z,43
2018-06-30T05:33:41.000Z,43
2018-06-30T05:34:41.000Z,43
2018-06-30T05:35:41.000Z,43
2018-06-30T05:36:41.000Z,43
2018-06-30T05:37:41.000Z,43
2018-06-30T05:38:41.000Z,43
2018-06-30T05:39:41.000Z,43
2018-06-30T05:40:41.000Z,43
2018-06-30T05:41:41.000Z,43
2018-06-30T05:42:41.000Z,43
2018-06-30T05:43:41.000Z,43
2018-06-30T05:44:41.000Z,43
2018-06-30T05:45:41.000Z,43
2018-06-30T05:46:41.000Z,43
2018-06-30T05:47:41.000Z,42
2018-06-30T05:48:41.000Z,42
2018-06-30T05:49:41.000Z,42
2018-06-30T05:50:41.000Z,42
2018-06-30T05:51:41.000Z,42
2018-06-30T05:52:41.000Z,42
2018-06-30T05:53:41.000Z,42
2018-06-30T05:54:41.000Z,42
2018-06-30T05:55:41.000Z,42
2018-06-30T05:56:41.000Z,42
2018-06-30T05:57:41.000Z,42
2018-06-30T05:58:41.000Z,42
2018-06-30T05:59:41.000Z,42
2018-06-30T06:01:41.000Z,42
2018-06-30T06:02:41.000Z,42
2018-06-30T06:03:41.000Z,42
2018-06-30T06:05:41.000Z,42
2018-06-30T06:07:41.000Z,42
2018-06-30T06:08:41.000Z,42
2018-06-30T06:09:41.000Z,42
2018-06-30T06:10:41.000Z,42
2018-06-30T06:12:42.000Z,42
2018-06-30T06:13:42.000Z,42
2018-06-30T06:14:42.000Z,42
2018-06-30T06:15:42.000Z,42
2018-06-30T06:16:42.000Z,42
2018-06-30T06:17:42.000Z,42
2018-06-30T06:18:42.000Z,42
2018-06-30T06:19:42.000Z,42
2018-06-30T06:21:42.000Z,41
2018-06-30T06:22:42.000Z,42
2018-06-30T06:23:42.000Z,42
2018-06-30T06:27:27.000Z,42
2018-06-30T06:28:27.000Z,42
2018-06-30T06:29:27.000Z,42
2018-06-30T06:30:27.000Z,42
2018-06-30T06:31:27.000Z,42
2018-06-30T06:32:27.000Z,42
2018-06-30T06:33:27.000Z,42
2018-06-30T06:34:27.000Z,41
2018-06-30T06:35:27.000Z,41
2018-06-30T06:36:27.000Z,41
2018-06-30T06:37:27.000Z,41
2018-06-30T06:38:27.000Z,41
2018-06-30T06:39:27.000Z,41
2018-06-30T06:40:27.000Z,41
2018-06-30T06:41:27.000Z,41
2018-06-30T06:42:27.000Z,41
2018-06-30T06:43:27.000Z,41
2018-06-30T06:44:27.000Z,41
2018-06-30T06:45:27.000Z,41
2018-06-30T06:46:27.000Z,41
2018-06-30T06:47:27.000Z,40
2018-06-30T06:48:27.000Z,40
2018-06-30T06:49:27.000Z,40
2018-06-30T06:50:27.000Z,40
2018-06-30T06:51:27.000Z,40
2018-06-30T06:52:27.000Z,40
2018-06-30T06:53:27.000Z,40
2018-06-30T06:55:27.000Z,40
2018-06-30T06:56:27.000Z,40
2018-06-30T06:57:27.000Z,40
2018-06-30T06:58:27.000Z,40
2018-06-30T06:59:27.000Z,40
2018-06-30T07:00:27.000Z,40
2018-06-30T07:01:27.000Z,40
2018-06-30T07:03:27.000Z,40
2018-06-30T07:04:27.000Z,40
2018-06-30T07:05:27.000Z,40
2018-06-30T07:06:27.000Z,40
2018-06-30T07:07:27.000Z,40
2018-06-30T07:08:27.000Z,40
2018-06-30T07:09:27.000Z,40
2018-06-30T07:10:27.000Z,40
2018-06-30T07:12:27.000Z,39
2018-06-30T07:13:27.000Z,40
2018-06-30T07:14:27.000Z,39
2018-06-30T07:15:27.000Z,40
2018-06-30T07:16:27.000Z,39
2018-06-30T07:17:27.000Z,39
2018-06-30T07:18:27.000Z,39
2018-06-30T07:19:27.000Z,39
2018-06-30T07:20:27.000Z,39
2018-06-30T07:21:27.000Z,39
2018-06-30T07:23:27.000Z,39
2018-06-30T07:24:27.000Z,39
2018-06-30T07:25:27.000Z,39
2018-06-30T07:26:27.000Z,39
2018-06-30T07:27:27.000Z,39
2018-06-30T07:28:27.000Z,39
2018-06-30T07:29:27.000Z,39
2018-06-30T07:31:27.000Z,39
2018-06-30T07:32:27.000Z,39
2018-06-30T07:33:27.000Z,39
2018-06-30T07:34:27.000Z,39
2018-06-30T07:35:27.000Z,39
2018-06-30T07:37:27.000Z,38
2018-06-30T07:38:27.000Z,39
2018-06-30T07:39:27.000Z,39
2018-06-30T07:40:27.000Z,39
2018-06-30T07:41:27.000Z,38
2018-06-30T07:42:27.000Z,38
2018-06-30T07:43:27.000Z,38
2018-06-30T07:44:27.000Z,38
2018-06-30T07:45:27.000Z,38
2018-06-30T07:46:27.000Z,38
2018-06-30T07:48:27.000Z,38
2018-06-30T07:49:27.000Z,38
2018-06-30T07:50:27.000Z,38
2018-06-30T07:51:27.000Z,38
2018-06-30T07:52:27.000Z,38
2018-06-30T07:53:27.000Z,38
2018-06-30T07:54:27.000Z,38
2018-06-30T07:55:27.000Z,38
2018-06-30T07:56:27.000Z,38
2018-06-30T07:57:27.000Z,37
2018-06-30T07:59:27.000Z,37
2018-06-30T08:00:27.000Z,37
2018-06-30T08:01:27.000Z,37
2018-06-30T08:02:27.000Z,37
2018-06-30T08:03:27.000Z,37
2018-06-30T08:05:27.000Z,37
2018-06-30T08:06:27.000Z,37
2018-06-30T08:07:27.000Z,37
2018-06-30T08:08:27.000Z,37
2018-06-30T08:09:27.000Z,37
2018-06-30T08:10:27.000Z,37
2018-06-30T08:11:27.000Z,37
2018-06-30T08:12:27.000Z,37
2018-06-30T08:13:27.000Z,37
2018-06-30T08:14:27.000Z,37
2018-06-30T08:16:27.000Z,37
2018-06-30T08:18:27.000Z,37
2018-06-30T08:20:27.000Z,37
2018-06-30T08:21:27.000Z,37
2018-06-30T08:22:27.000Z,37
2018-06-30T08:23:27.000Z,37
2018-06-30T08:25:27.000Z,36
2018-06-30T08:27:27.000Z,36
2018-06-30T08:28:27.000Z,37
2018-06-30T08:29:27.000Z,36
2018-06-30T08:30:27.000Z,36
2018-06-30T08:31:27.000Z,36
2018-06-30T08:32:27.000Z,37
2018-06-30T08:33:27.000Z,37
2018-06-30T08:34:27.000Z,36
2018-06-30T08:36:27.000Z,36
2018-06-30T08:37:27.000Z,36
2018-06-30T08:39:27.000Z,35
2018-06-30T08:40:27.000Z,35
2018-06-30T08:41:27.000Z,35
2018-06-30T08:42:27.000Z,35
2018-06-30T08:43:27.000Z,35
2018-06-30T08:44:27.000Z,34
2018-06-30T08:45:27.000Z,34
2018-06-30T08:47:27.000Z,34
2018-06-30T08:48:27.000Z,34
2018-06-30T08:49:27.000Z,34
2018-06-30T08:51:27.000Z,34
2018-06-30T08:52:27.000Z,35
2018-06-30T08:53:27.000Z,35
2018-06-30T08:55:27.000Z,35
2018-06-30T08:56:27.000Z,35
2018-06-30T08:57:27.000Z,35
2018-06-30T08:58:27.000Z,35
2018-06-30T08:59:27.000Z,35
2018-06-30T09:00:27.000Z,36
2018-06-30T09:01:27.000Z,36
2018-06-30T09:02:27.000Z,36
2018-06-30T09:03:27.000Z,36
2018-06-30T09:04:27.000Z,36
2018-06-30T09:05:27.000Z,36
2018-06-30T09:07:27.000Z,36
2018-06-30T09:08:27.000Z,36
2018-06-30T09:09:27.000Z,36
2018-06-30T09:10:27.000Z,36
2018-06-30T09:11:27.000Z,36
2018-06-30T09:12:27.000Z,36
2018-06-30T09:13:27.000Z,36
2018-06-30T09:14:27.000Z,36
2018-06-30T09:15:27.000Z,36
2018-06-30T09:16:27.000Z,36
2018-06-30T09:17:27.000Z,36
2018-06-30T09:18:27.000Z,36
2018-06-30T09:19:27.000Z,36
2018-06-30T09:20:27.000Z,36
2018-06-30T09:21:27.000Z,36
2018-06-30T09:22:27.000Z,36
2018-06-30T09:23:27.000Z,36
2018-06-30T09:25:27.000Z,36
2018-06-30T09:26:27.000Z,36
2018-06-30T09:27:27.000Z,36
2018-06-30T09:28:27.000Z,36
2018-06-30T09:29:27.000Z,36
2018-06-30T09:31:27.000Z,36
2018-06-30T09:32:27.000Z,36
2018-06-30T09:33:27.000Z,36
2018-06-30T09:35:27.000Z,36
2018-06-30T09:36:27.000Z,36
2018-06-30T09:37:27.000Z,36
2018-06-30T09:38:27.000Z,36
2018-06-30T09:39:27.000Z,36
2018-06-30T09:40:27.000Z,36
2018-06-30T09:42:27.000Z,36
2018-06-30T09:43:27.000Z,36
2018-06-30T09:45:27.000Z,36
2018-06-30T09:46:27.000Z,36
2018-06-30T09:47:27.000Z,36
2018-06-30T09:48:27.000Z,36
2018-06-30T09:49:27.000Z,36
2018-06-30T09:51:27.000Z,35
2018-06-30T09:52:27.000Z,36
2018-06-30T09:53:27.000Z,35
2018-06-30T09:55:27.000Z,35
2018-06-30T09:56:27.000Z,35
2018-06-30T09:58:27.000Z,35
2018-06-30T09:59:27.000Z,35
2018-06-30T10:01:27.000Z,35
2018-06-30T10:02:27.000Z,35
2018-06-30T10:03:27.000Z,35
2018-06-30T10:04:27.000Z,35
2018-06-30T10:05:27.000Z,35
2018-06-30T10:06:27.000Z,35
2018-06-30T10:07:27.000Z,35
2018-06-30T10:08:27.000Z,35
2018-06-30T10:09:27.000Z,35
2018-06-30T10:10:27.000Z,35
2018-06-30T10:12:27.000Z,34
2018-06-30T10:13:27.000Z,35
2018-06-30T10:14:27.000Z,35
2018-06-30T10:15:27.000Z,34
2018-06-30T10:16:27.000Z,34
2018-06-30T10:17:27.000Z,34
2018-06-30T10:18:27.000Z,34
2018-06-30T10:19:27.000Z,34
2018-06-30T10:20:27.000Z,34
2018-06-30T10:21:27.000Z,34
2018-06-30T10:23:27.000Z,34
2018-06-30T10:24:27.000Z,34
2018-06-30T10:25:27.000Z,34
2018-06-30T10:26:28.000Z,34
2018-06-30T10:27:28.000Z,34
2018-06-30T10:28:28.000Z,34
2018-06-30T10:29:28.000Z,34
2018-06-30T10:30:28.000Z,34
2018-06-30T10:32:28.000Z,34
2018-06-30T10:33:28.000Z,34
2018-06-30T10:34:28.000Z,34
2018-06-30T10:35:28.000Z,34
2018-06-30T10:36:28.000Z,34
2018-06-30T10:38:28.000Z,34
2018-06-30T10:39:28.000Z,34
2018-06-30T10:40:28.000Z,34
2018-06-30T10:41:28.000Z,34
2018-06-30T10:42:28.000Z,34
2018-06-30T10:43:28.000Z,34
2018-06-30T10:44:28.000Z,34
2018-06-30T10:45:28.000Z,34
2018-06-30T10:46:28.000Z,34
2018-06-30T10:47:28.000Z,34
2018-06-30T10:49:28.000Z,34
2018-06-30T10:50:28.000Z,34
2018-06-30T10:51:28.000Z,34
2018-06-30T10:52:28.000Z,34
2018-06-30T10:53:28.000Z,34
2018-06-30T10:54:28.000Z,34
2018-06-30T10:55:28.000Z,34
2018-06-30T10:56:28.000Z,34
2018-06-30T10:57:28.000Z,33
2018-06-30T10:59:28.000Z,33
2018-06-30T11:00:28.000Z,33
2018-06-30T11:01:28.000Z,33
2018-06-30T11:03:28.000Z,33
2018-06-30T11:04:28.000Z,33
2018-06-30T11:05:28.000Z,33
2018-06-30T11:06:28.000Z,33
2018-06-30T11:08:28.000Z,33
2018-06-30T11:09:28.000Z,33
2018-06-30T11:10:28.000Z,33
2018-06-30T11:12:28.000Z,33
2018-06-30T11:13:28.000Z,33
2018-06-30T11:15:28.000Z,33
2018-06-30T11:16:28.000Z,33
2018-06-30T11:17:28.000Z,33
2018-06-30T11:18:28.000Z,33
2018-06-30T11:19:28.000Z,33
2018-06-30T11:20:28.000Z,33
2018-06-30T11:21:28.000Z,33
2018-06-30T11:22:28.000Z,33
2018-06-30T11:23:28.000Z,33
2018-06-30T11:24:28.000Z,33
2018-06-30T11:25:28.000Z,33
2018-06-30T11:26:28.000Z,33
2018-06-30T11:27:28.000Z,33
2018-06-30T11:28:28.000Z,33
2018-06-30T11:29:27.000Z,33
2018-06-30T11:30:27.000Z,32
2018-06-30T11:31:27.000Z,32
2018-06-30T11:32:27.000Z,32
2018-06-30T11:33:27.000Z,32
2018-06-30T11:35:27.000Z,32
2018-06-30T11:36:27.000Z,32
2018-06-30T11:37:27.000Z,32
2018-06-30T11:38:27.000Z,31
2018-06-30T11:40:27.000Z,31
2018-06-30T11:41:27.000Z,32
2018-06-30T11:42:27.000Z,32
2018-06-30T11:43:27.000Z,32
2018-06-30T11:44:27.000Z,32
2018-06-30T11:46:27.000Z,32
2018-06-30T11:47:27.000Z,32
2018-06-30T11:48:27.000Z,32
2018-06-30T11:49:27.000Z,32
2018-06-30T11:50:27.000Z,31
2018-06-30T11:51:27.000Z,31
2018-06-30T11:52:27.000Z,31
2018-06-30T11:53:27.000Z,31
2018-06-30T11:55:27.000Z,31
2018-06-30T11:56:27.000Z,31
2018-06-30T11:57:27.000Z,31
2018-06-30T11:58:27.000Z,31
2018-06-30T11:59:27.000Z,31
2018-06-30T12:00:27.000Z,31
2018-06-30T12:01:27.000Z,31
2018-06-30T12:02:27.000Z,31
2018-06-30T12:03:27.000Z,31
2018-06-30T12:04:27.000Z,31
2018-06-30T12:05:27.000Z,30
2018-06-30T12:06:27.000Z,30
2018-06-30T12:07:27.000Z,30
2018-06-30T12:09:27.000Z,30
2018-06-30T12:10:27.000Z,30
2018-06-30T12:11:27.000Z,30
2018-06-30T12:12:27.000Z,30
2018-06-30T12:13:27.000Z,30
2018-06-30T12:14:27.000Z,30
2018-06-30T12:15:27.000Z,30
2018-06-30T12:17:27.000Z,29
2018-06-30T12:18:27.000Z,29
2018-06-30T12:19:27.000Z,29
2018-06-30T12:21:27.000Z,29
2018-06-30T12:22:27.000Z,29
2018-06-30T12:23:27.000Z,29
2018-06-30T12:24:27.000Z,29
2018-06-30T12:25:27.000Z,29
2018-06-30T12:26:27.000Z,29
2018-06-30T12:27:27.000Z,29
2018-06-30T12:28:27.000Z,29
2018-06-30T12:29:27.000Z,29
2018-06-30T12:30:27.000Z,29
2018-06-30T12:31:27.000Z,29
2018-06-30T12:32:27.000Z,28
2018-06-30T12:33:27.000Z,28
2018-06-30T12:34:27.000Z,28
2018-06-30T12:35:27.000Z,28
2018-06-30T12:36:27.000Z,28
2018-06-30T12:38:27.000Z,28
2018-06-30T12:39:27.000Z,28
2018-06-30T12:40:27.000Z,28
2018-06-30T12:41:27.000Z,28
2018-06-30T12:42:27.000Z,28
2018-06-30T12:44:27.000Z,28
2018-06-30T12:45:27.000Z,28
2018-06-30T12:46:27.000Z,28
2018-06-30T12:48:27.000Z,28
2018-06-30T12:49:27.000Z,28
2018-06-30T12:50:27.000Z,28
2018-06-30T12:51:27.000Z,28
2018-06-30T12:52:27.000Z,28
2018-06-30T12:53:27.000Z,28
2018-06-30T12:54:27.000Z,28
2018-06-30T12:56:27.000Z,28
2018-06-30T12:57:27.000Z,28
2018-06-30T12:58:27.000Z,28
2018-06-30T12:59:27.000Z,28
2018-06-30T13:00:27.000Z,28
2018-06-30T13:01:27.000Z,28
2018-06-30T13:02:27.000Z,28
2018-06-30T13:03:27.000Z,28
2018-06-30T13:04:27.000Z,28
2018-06-30T13:05:27.000Z,28
2018-06-30T13:06:27.000Z,28
2018-06-30T13:07:27.000Z,28
2018-06-30T13:09:27.000Z,28
2018-06-30T13:11:27.000Z,28
2018-06-30T13:12:27.000Z,28
2018-06-30T13:13:27.000Z,28
2018-06-30T13:14:27.000Z,28
2018-06-30T13:16:27.000Z,28
2018-06-30T13:18:27.000Z,28
2018-06-30T13:19:27.000Z,28
2018-06-30T13:21:27.000Z,28
2018-06-30T13:22:27.000Z,28
2018-06-30T13:23:27.000Z,28
2018-06-30T13:25:27.000Z,28
2018-06-30T13:26:27.000Z,28
2018-06-30T13:28:27.000Z,28
2018-06-30T13:29:27.000Z,28
2018-06-30T13:30:27.000Z,28
2018-06-30T13:32:27.000Z,28
2018-06-30T13:33:27.000Z,28
2018-06-30T13:34:27.000Z,28
2018-06-30T13:35:27.000Z,28
2018-06-30T13:37:28.000Z,28
2018-06-30T13:38:28.000Z,28
2018-06-30T13:39:28.000Z,28
2018-06-30T13:40:28.000Z,28
2018-06-30T13:42:28.000Z,28
2018-06-30T13:43:28.000Z,28
2018-06-30T13:44:28.000Z,28
2018-06-30T13:45:28.000Z,28
2018-06-30T13:46:28.000Z,28
2018-06-30T13:47:28.000Z,28
2018-06-30T13:48:28.000Z,28
2018-06-30T13:49:28.000Z,28
2018-06-30T13:50:28.000Z,28
2018-06-30T13:51:28.000Z,28
2018-06-30T13:52:28.000Z,28
2018-06-30T13:54:28.000Z,28
2018-06-30T13:55:28.000Z,28
2018-06-30T13:56:28.000Z,28
2018-06-30T13:57:28.000Z,28
2018-06-30T13:58:28.000Z,28
2018-06-30T13:59:28.000Z,28
2018-06-30T14:00:28.000Z,28
2018-06-30T14:01:28.000Z,28
2018-06-30T14:02:28.000Z,28
2018-06-30T14:03:28.000Z,28
2018-06-30T14:04:28.000Z,28
2018-06-30T14:05:28.000Z,29
2018-06-30T14:06:28.000Z,29
2018-06-30T14:07:28.000Z,28
2018-06-30T14:08:28.000Z,28
2018-06-30T14:10:28.000Z,28
2018-06-30T14:11:28.000Z,28
2018-06-30T14:12:28.000Z,28
2018-06-30T14:13:28.000Z,28
2018-06-30T14:14:28.000Z,28
2018-06-30T14:15:28.000Z,28
2018-06-30T14:16:28.000Z,28
2018-06-30T14:17:28.000Z,28
2018-06-30T14:18:28.000Z,28
2018-06-30T14:19:28.000Z,28
2018-06-30T14:20:28.000Z,28
2018-06-30T14:22:28.000Z,28
2018-06-30T14:23:28.000Z,28
2018-06-30T14:24:28.000Z,28
2018-06-30T14:25:28.000Z,28
2018-06-30T14:26:28.000Z,28
2018-06-30T14:28:28.000Z,28
2018-06-30T14:29:28.000Z,28
2018-06-30T14:31:28.000Z,28
2018-06-30T14:32:28.000Z,28
2018-06-30T14:33:28.000Z,28
2018-06-30T14:34:28.000Z,27
2018-06-30T14:36:28.000Z,27
2018-06-30T14:37:28.000Z,27
2018-06-30T14:38:28.000Z,27
2018-06-30T14:39:28.000Z,27
2018-06-30T14:40:27.000Z,27
2018-06-30T14:41:27.000Z,27
2018-06-30T14:42:27.000Z,27
2018-06-30T14:43:27.000Z,26
2018-06-30T14:45:27.000Z,26
2018-06-30T14:46:27.000Z,26
2018-06-30T14:47:27.000Z,26
2018-06-30T14:48:27.000Z,26
2018-06-30T14:49:27.000Z,26
2018-06-30T14:50:27.000Z,26
2018-06-30T14:51:27.000Z,26
2018-06-30T14:52:27.000Z,26
2018-06-30T14:53:27.000Z,26
2018-06-30T14:54:27.000Z,26
2018-06-30T14:55:27.000Z,26
2018-06-30T14:56:27.000Z,25
2018-06-30T14:57:27.000Z,25
2018-06-30T14:58:27.000Z,25
2018-06-30T14:59:27.000Z,25
2018-06-30T15:00:27.000Z,25
2018-06-30T15:01:27.000Z,25
2018-06-30T15:02:27.000Z,25
2018-06-30T15:03:27.000Z,25
2018-06-30T15:04:27.000Z,25
2018-06-30T15:05:27.000Z,25
2018-06-30T15:06:27.000Z,25
2018-06-30T15:07:27.000Z,25
2018-06-30T15:09:27.000Z,25
2018-06-30T15:10:27.000Z,25
2018-06-30T15:11:27.000Z,25
2018-06-30T15:13:27.000Z,24
2018-06-30T15:14:27.000Z,25
2018-06-30T15:15:27.000Z,24
2018-06-30T15:16:27.000Z,25
2018-06-30T15:17:27.000Z,24
2018-06-30T15:18:27.000Z,25
2018-06-30T15:19:27.000Z,24
2018-06-30T15:20:27.000Z,24
2018-06-30T15:22:27.000Z,24
2018-06-30T15:24:27.000Z,24
2018-06-30T15:25:27.000Z,24
2018-06-30T15:26:27.000Z,24
2018-06-30T15:27:27.000Z,24
2018-06-30T15:28:27.000Z,24
2018-06-30T15:29:27.000Z,24
2018-06-30T15:30:27.000Z,24
2018-06-30T15:31:27.000Z,24
2018-06-30T15:32:27.000Z,24
2018-06-30T15:33:27.000Z,24
2018-06-30T15:35:27.000Z,24
2018-06-30T15:36:27.000Z,24
2018-06-30T15:37:27.000Z,24
2018-06-30T15:38:27.000Z,24
2018-06-30T15:39:27.000Z,24
2018-06-30T15:40:27.000Z,24
2018-06-30T15:41:27.000Z,24
2018-06-30T15:42:27.000Z,24
2018-06-30T15:43:27.000Z,24
2018-06-30T15:45:27.000Z,24
2018-06-30T15:46:27.000Z,24
2018-06-30T15:47:27.000Z,24
2018-06-30T15:48:27.000Z,24
2018-06-30T15:49:27.000Z,24
2018-06-30T15:50:27.000Z,24
2018-06-30T15:51:27.000Z,24
2018-06-30T15:52:27.000Z,24
2018-06-30T15:53:27.000Z,24
2018-06-30T15:54:27.000Z,24
2018-06-30T15:55:27.000Z,23
2018-06-30T15:56:27.000Z,24
2018-06-30T15:57:27.000Z,24
2018-06-30T15:58:27.000Z,23
2018-06-30T15:59:27.000Z,23
2018-06-30T16:01:27.000Z,23
2018-06-30T16:02:27.000Z,23
2018-06-30T16:04:27.000Z,23
2018-06-30T16:05:27.000Z,23
2018-06-30T16:06:27.000Z,23
2018-06-30T16:07:27.000Z,23
2018-06-30T16:09:27.000Z,23
2018-06-30T16:10:27.000Z,23